Time;durP1;ratioP1;P1;durP2;ratioP2;P2;SDS_P1;SDS_P2;PMS_P1;PMS_P2;Temp;Humidity;BMP_temperature;BMP_pressure;BME280_temperature;BME280_humidity;BME280_pressure;Samples;Min_cycle;Max_cycle;Signal;HPM_P1;HPM_P2
2022/04/15 00:01:22;;;;;;;1.05;0.70;;;7.00;99.90;;;;;;5075960;28;20097;-74
2022/04/15 00:03:51;;;;;;;1.42;0.45;;;7.00;99.90;;;;;;5092804;28;20089;-74
2022/04/15 00:06:17;;;;;;;1.55;0.60;;;7.00;99.90;;;;;;5092960;28;20067;-74
2022/04/15 00:08:43;;;;;;;1.00;0.55;;;7.00;99.90;;;;;;5093000;28;20127;-75
2022/04/15 00:11:09;;;;;;;0.50;0.50;;;7.00;99.90;;;;;;5092643;28;20429;-74
2022/04/15 00:13:35;;;;;;;0.30;0.30;;;8.00;99.90;;;;;;5091648;28;20036;-74
2022/04/15 00:16:03;;;;;;;0.30;0.30;;;7.20;99.90;;;;;;5075775;28;20127;-74
2022/04/15 00:18:28;;;;;;;0.20;0.20;;;7.50;99.90;;;;;;5075774;28;20036;-76
2022/04/15 00:20:55;;;;;;;0.45;0.30;;;7.30;99.90;;;;;;5059349;28;20047;-75
2022/04/15 00:23:24;;;;;;;0.20;0.20;;;8.10;99.90;;;;;;5092323;28;20056;-74
2022/04/15 00:25:50;;;;;;;0.40;0.40;;;7.40;99.90;;;;;;5092695;28;20101;-74
2022/04/15 00:28:16;;;;;;;0.43;0.43;;;7.40;99.90;;;;;;5092444;28;20058;-74
2022/04/15 00:30:42;;;;;;;0.43;0.28;;;7.40;99.90;;;;;;5075432;28;20406;-75
2022/04/15 00:33:08;;;;;;;0.60;0.60;;;7.50;99.90;;;;;;5092814;28;20488;-74
2022/04/15 00:35:34;;;;;;;2.63;1.88;;;7.50;99.90;;;;;;5075241;28;20051;-74
2022/04/15 00:38:00;;;;;;;1.50;0.57;;;7.50;99.90;;;;;;5092448;28;20075;-74
2022/04/15 00:40:26;;;;;;;0.68;0.47;;;8.30;99.90;;;;;;5075310;28;20135;-74
2022/04/15 00:42:51;;;;;;;0.70;0.30;;;7.60;99.90;;;;;;5075346;28;20043;-74
2022/04/15 00:45:17;;;;;;;3.63;0.63;;;7.60;99.90;;;;;;5075210;28;20043;-74
2022/04/15 00:47:52;;;;;;;0.82;0.80;;;7.60;99.90;;;;;;5075098;28;20105;-74
2022/04/15 00:50:19;;;;;;;0.30;0.30;;;7.60;99.90;;;;;;5075101;28;20096;-74
2022/04/15 00:52:46;;;;;;;0.25;0.25;;;7.60;99.90;;;;;;5091816;28;20047;-74
2022/04/15 00:55:14;;;;;;;0.40;0.40;;;7.60;99.90;;;;;;5091801;28;20051;-74
2022/04/15 00:57:44;;;;;;;1.00;0.75;;;7.70;99.90;;;;;;5091641;28;20407;-75
2022/04/15 01:00:12;;;;;;;0.43;0.40;;;7.60;99.90;;;;;;5092004;28;20043;-75
2022/04/15 01:02:38;;;;;;;0.30;0.20;;;7.70;99.90;;;;;;5091990;28;20487;-75
2022/04/15 01:05:08;;;;;;;1.60;0.98;;;7.70;99.90;;;;;;5074778;28;20047;-75
2022/04/15 01:07:38;;;;;;;0.10;0.10;;;7.70;99.90;;;;;;5074685;28;20047;-76
2022/04/15 01:10:07;;;;;;;1.38;0.63;;;7.70;99.90;;;;;;5074631;28;20063;-75
2022/04/15 01:12:36;;;;;;;1.10;0.45;;;7.70;99.90;;;;;;5091323;28;20036;-75
2022/04/15 01:15:05;;;;;;;0.20;0.20;;;8.30;99.90;;;;;;5091446;28;20132;-75
2022/04/15 01:17:33;;;;;;;0.50;0.50;;;7.70;99.90;;;;;;5091341;28;20091;-75
2022/04/15 01:20:00;;;;;;;0.28;0.20;;;7.70;99.90;;;;;;5074715;28;20411;-75
2022/04/15 01:22:32;;;;;;;0.32;0.28;;;7.80;99.90;;;;;;5091167;28;20059;-75
2022/04/15 01:24:58;;;;;;;1.85;0.95;;;7.80;99.90;;;;;;5090973;28;20122;-75
2022/04/15 01:27:28;;;;;;;0.98;0.80;;;7.80;99.90;;;;;;5074442;28;20140;-74
2022/04/15 01:29:54;;;;;;;0.73;0.35;;;7.80;99.90;;;;;;5074500;28;20047;-75
2022/04/15 01:32:20;;;;;;;0.40;0.40;;;7.80;99.90;;;;;;5091074;28;20606;-75
2022/04/15 01:34:46;;;;;;;0.55;0.55;;;7.80;99.90;;;;;;5074176;28;20101;-75
2022/04/15 01:37:15;;;;;;;1.05;0.65;;;7.80;99.90;;;;;;5091331;28;20392;-75
2022/04/15 01:39:42;;;;;;;0.28;0.28;;;8.60;99.90;;;;;;5090707;28;20082;-75
2022/04/15 01:42:11;;;;;;;0.28;0.28;;;7.90;99.90;;;;;;5057476;28;20094;-75
2022/04/15 01:44:39;;;;;;;0.22;0.22;;;8.00;99.90;;;;;;5090927;28;20044;-75
2022/04/15 01:47:05;;;;;;;0.30;0.30;;;7.90;99.90;;;;;;5091223;28;20372;-75
2022/04/15 01:49:31;;;;;;;0.55;0.52;;;7.90;99.90;;;;;;5074281;28;20522;-75
2022/04/15 01:51:56;;;;;;;0.43;0.43;;;7.90;99.90;;;;;;5057212;28;20036;-75
2022/04/15 01:54:23;;;;;;;0.55;0.55;;;8.20;99.90;;;;;;5074048;28;20036;-75
2022/04/15 01:56:49;;;;;;;0.35;0.32;;;7.90;99.90;;;;;;5073920;28;20107;-75
2022/04/15 01:59:15;;;;;;;0.35;0.28;;;8.00;99.90;;;;;;5090938;28;20044;-75
2022/04/15 02:01:41;;;;;;;0.85;0.55;;;8.00;99.90;;;;;;5090807;28;20036;-75
2022/04/15 02:04:06;;;;;;;3.72;0.63;;;7.90;99.90;;;;;;5073998;28;20386;-75
2022/04/15 02:06:32;;;;;;;0.57;0.40;;;8.00;99.90;;;;;;5090628;28;20070;-76
2022/04/15 02:08:58;;;;;;;0.95;0.68;;;8.00;99.90;;;;;;5090679;28;20047;-75
2022/04/15 02:11:23;;;;;;;1.08;0.40;;;8.00;99.90;;;;;;5090673;28;20043;-75
2022/04/15 02:13:49;;;;;;;0.38;0.38;;;8.00;99.90;;;;;;5090988;28;20039;-76
2022/04/15 02:16:15;;;;;;;0.63;0.63;;;8.10;99.90;;;;;;5057424;28;20044;-74
2022/04/15 02:18:40;;;;;;;1.45;0.65;;;8.10;99.90;;;;;;5073828;28;20039;-75
2022/04/15 02:21:06;;;;;;;1.25;0.93;;;8.10;99.90;;;;;;5090918;28;20075;-75
2022/04/15 02:23:32;;;;;;;0.55;0.35;;;8.10;99.90;;;;;;5073619;28;20044;-75
2022/04/15 02:25:57;;;;;;;1.42;0.75;;;8.10;99.90;;;;;;5073807;28;20050;-76
2022/04/15 02:28:23;;;;;;;0.75;0.75;;;8.40;99.90;;;;;;5090669;28;20040;-75
2022/04/15 02:30:49;;;;;;;0.20;0.20;;;8.10;99.90;;;;;;5090434;28;20040;-75
2022/04/15 02:33:15;;;;;;;0.43;0.43;;;8.10;99.90;;;;;;5056912;28;20040;-76
2022/04/15 02:35:41;;;;;;;1.15;0.57;;;8.10;99.90;;;;;;5091428;28;20087;-75
2022/04/15 02:38:06;;;;;;;1.85;0.55;;;8.10;99.90;;;;;;5060870;28;20075;-75
2022/04/15 02:40:32;;;;;;;0.80;0.55;;;8.10;99.90;;;;;;5077486;28;20040;-75
2022/04/15 02:42:59;;;;;;;0.73;0.43;;;8.10;99.90;;;;;;5077538;28;20509;-74
2022/04/15 02:45:25;;;;;;;0.70;0.47;;;8.20;99.90;;;;;;5094894;28;20094;-75
2022/04/15 02:47:51;;;;;;;1.00;0.65;;;8.10;99.90;;;;;;5094258;28;20036;-75
2022/04/15 02:50:17;;;;;;;4.45;0.77;;;8.80;99.90;;;;;;5061392;28;20055;-75
2022/04/15 02:52:43;;;;;;;0.73;0.65;;;8.10;99.90;;;;;;5060874;28;20036;-75
2022/04/15 02:55:08;;;;;;;0.50;0.43;;;8.40;99.90;;;;;;5077314;28;20036;-74
2022/04/15 02:57:35;;;;;;;0.85;0.82;;;8.10;99.90;;;;;;5094479;28;20145;-74
2022/04/15 03:00:00;;;;;;;0.63;0.28;;;8.20;99.90;;;;;;5093933;28;20050;-75
2022/04/15 03:02:26;;;;;;;0.30;0.30;;;8.20;99.90;;;;;;5077332;28;20036;-74
2022/04/15 03:04:52;;;;;;;0.75;0.40;;;8.20;99.90;;;;;;5094462;28;20040;-75
2022/04/15 03:07:18;;;;;;;0.17;0.17;;;8.30;99.90;;;;;;5094722;28;20157;-74
2022/04/15 03:09:43;;;;;;;1.08;0.73;;;8.20;99.90;;;;;;5094486;28;20087;-75
2022/04/15 03:12:10;;;;;;;0.98;0.32;;;8.60;99.90;;;;;;5077238;28;20491;-75
2022/04/15 03:14:36;;;;;;;0.45;0.30;;;8.30;99.90;;;;;;5094345;28;20131;-75
2022/04/15 03:17:02;;;;;;;1.17;0.60;;;8.40;99.90;;;;;;5094321;28;20079;-74
2022/04/15 03:19:27;;;;;;;1.25;0.40;;;8.40;99.90;;;;;;5076931;28;20044;-75
2022/04/15 03:21:53;;;;;;;0.30;0.30;;;8.40;99.90;;;;;;5077015;28;20050;-74
2022/04/15 03:24:19;;;;;;;1.10;0.52;;;8.50;99.90;;;;;;5076789;28;20518;-74
2022/04/15 03:26:44;;;;;;;1.13;0.38;;;8.50;99.90;;;;;;5093512;28;20368;-74
2022/04/15 03:29:11;;;;;;;0.63;0.52;;;8.40;99.90;;;;;;5060020;28;20079;-74
2022/04/15 03:31:36;;;;;;;1.00;0.63;;;8.50;99.90;;;;;;5076548;28;20044;-75
2022/04/15 03:34:02;;;;;;;0.38;0.30;;;8.50;99.90;;;;;;5076468;28;20513;-75
2022/04/15 03:36:28;;;;;;;1.58;0.70;;;8.80;99.90;;;;;;5093339;28;20040;-75
2022/04/15 03:38:54;;;;;;;0.30;0.30;;;8.50;99.90;;;;;;5076383;28;20044;-75
2022/04/15 03:41:20;;;;;;;0.40;0.40;;;8.50;99.90;;;;;;5093268;28;20407;-74
2022/04/15 03:43:46;;;;;;;0.52;0.47;;;8.50;99.90;;;;;;5093485;28;20127;-74
2022/04/15 03:46:11;;;;;;;1.55;1.08;;;9.30;99.90;;;;;;5076217;28;20161;-74
2022/04/15 03:48:37;;;;;;;0.63;0.63;;;9.10;99.90;;;;;;5093354;28;20130;-73
2022/04/15 03:51:03;;;;;;;3.35;1.13;;;8.50;99.90;;;;;;5093073;28;20040;-73
2022/04/15 03:53:28;;;;;;;1.33;0.60;;;8.50;99.90;;;;;;5093265;28;20048;-74
2022/04/15 03:55:54;;;;;;;1.70;0.73;;;8.40;99.90;;;;;;5076184;28;20035;-74
2022/04/15 03:58:20;;;;;;;0.20;0.20;;;8.40;99.90;;;;;;5076071;28;20598;-74
2022/04/15 04:00:46;;;;;;;0.68;0.52;;;8.40;99.90;;;;;;5092784;28;20570;-74
2022/04/15 04:03:12;;;;;;;1.30;1.20;;;8.40;99.90;;;;;;5092551;28;20399;-74
2022/04/15 04:05:38;;;;;;;0.70;0.65;;;8.30;99.90;;;;;;5092640;28;20040;-74
2022/04/15 04:08:04;;;;;;;0.20;0.20;;;8.30;99.90;;;;;;5075868;28;20040;-74
2022/04/15 04:10:30;;;;;;;0.82;0.82;;;8.30;99.90;;;;;;5092987;28;20424;-74
2022/04/15 04:12:56;;;;;;;0.70;0.52;;;8.30;99.90;;;;;;5075881;28;20109;-74
2022/04/15 04:15:22;;;;;;;2.20;0.98;;;8.40;99.90;;;;;;5076009;28;20495;-75
2022/04/15 04:17:49;;;;;;;0.63;0.63;;;8.20;99.90;;;;;;5092585;28;20048;-75
2022/04/15 04:20:16;;;;;;;0.73;0.52;;;8.10;99.90;;;;;;5075741;28;20040;-75
2022/04/15 04:22:42;;;;;;;1.15;1.00;;;8.10;99.90;;;;;;5059204;28;20437;-75
2022/04/15 04:25:08;;;;;;;0.30;0.30;;;8.00;99.90;;;;;;5075579;28;20093;-75
2022/04/15 04:27:39;;;;;;;2.30;1.15;;;8.00;99.90;;;;;;5075484;28;20036;-75
2022/04/15 04:30:06;;;;;;;0.60;0.60;;;8.00;99.90;;;;;;5092378;28;20055;-74
2022/04/15 04:32:31;;;;;;;1.63;0.63;;;8.00;99.90;;;;;;5075280;28;20093;-74
2022/04/15 04:34:57;;;;;;;0.47;0.40;;;8.00;99.90;;;;;;5075370;28;20055;-75
2022/04/15 04:37:23;;;;;;;0.20;0.20;;;7.90;99.90;;;;;;5092610;28;20396;-75
2022/04/15 04:39:49;;;;;;;1.75;0.40;;;7.90;99.90;;;;;;5075127;28;20039;-75
2022/04/15 04:42:15;;;;;;;0.60;0.60;;;8.20;99.90;;;;;;5075365;28;20200;-75
2022/04/15 04:44:41;;;;;;;0.95;0.30;;;7.90;99.90;;;;;;5075186;28;20043;-75
2022/04/15 04:47:09;;;;;;;0.70;0.55;;;7.90;99.90;;;;;;5092031;28;20174;-74
2022/04/15 04:49:36;;;;;;;0.55;0.55;;;7.90;99.90;;;;;;5075323;28;20059;-74
2022/04/15 04:52:03;;;;;;;1.17;0.57;;;7.90;99.90;;;;;;5075072;28;20036;-74
2022/04/15 04:54:29;;;;;;;0.25;0.25;;;7.90;99.90;;;;;;5091785;28;20055;-76
2022/04/15 04:56:55;;;;;;;0.40;0.40;;;7.90;99.90;;;;;;5092072;28;20395;-75
2022/04/15 04:59:23;;;;;;;0.45;0.45;;;7.80;99.90;;;;;;5074402;28;20048;-75
2022/04/15 05:01:48;;;;;;;0.30;0.30;;;8.40;99.90;;;;;;5074808;28;20467;-75
2022/04/15 05:04:14;;;;;;;1.80;1.05;;;7.90;99.90;;;;;;5074795;28;20085;-74
2022/04/15 05:06:40;;;;;;;2.42;0.70;;;7.90;99.90;;;;;;5091670;28;20044;-75
2022/04/15 05:09:05;;;;;;;0.93;0.88;;;7.80;99.90;;;;;;5074702;28;20062;-76
2022/04/15 05:11:31;;;;;;;0.25;0.25;;;8.50;99.90;;;;;;5074633;28;20436;-75
2022/04/15 05:13:57;;;;;;;0.20;0.20;;;7.80;99.90;;;;;;5074698;28;20560;-75
2022/04/15 05:16:22;;;;;;;0.20;0.20;;;7.90;99.90;;;;;;5074748;28;20043;-75
2022/04/15 05:18:48;;;;;;;0.65;0.55;;;7.90;99.90;;;;;;5074422;28;20475;-75
2022/04/15 05:21:14;;;;;;;1.73;1.05;;;7.80;99.90;;;;;;5057978;28;20060;-76
2022/04/15 05:23:39;;;;;;;0.13;0.13;;;7.80;99.90;;;;;;5074117;28;20048;-76
2022/04/15 05:26:05;;;;;;;0.40;0.40;;;8.40;99.90;;;;;;5091476;28;20143;-75
2022/04/15 05:28:35;;;;;;;0.82;0.50;;;7.80;99.90;;;;;;5091401;28;20097;-76
2022/04/15 05:31:00;;;;;;;0.30;0.30;;;7.80;99.90;;;;;;5075147;28;20381;-76
2022/04/15 05:33:26;;;;;;;0.40;0.35;;;7.80;99.90;;;;;;5091129;28;20042;-74
2022/04/15 05:35:52;;;;;;;0.40;0.40;;;7.80;99.90;;;;;;5074279;28;20048;-74
2022/04/15 05:38:18;;;;;;;0.25;0.25;;;7.80;99.90;;;;;;5091096;28;20036;-74
2022/04/15 05:40:44;;;;;;;0.30;0.30;;;7.80;99.90;;;;;;5074094;28;20043;-75
2022/04/15 05:43:09;;;;;;;0.35;0.35;;;7.80;99.90;;;;;;5091068;28;20036;-74
2022/04/15 05:45:35;;;;;;;0.75;0.38;;;7.80;99.90;;;;;;5092109;28;20048;-74
2022/04/15 05:48:01;;;;;;;0.22;0.22;;;7.80;99.90;;;;;;5090777;28;20036;-75
2022/04/15 05:50:27;;;;;;;0.63;0.45;;;7.80;99.90;;;;;;5074224;28;20066;-74
2022/04/15 05:52:52;;;;;;;3.15;0.82;;;7.80;99.90;;;;;;5090850;28;20046;-74
2022/04/15 05:55:18;;;;;;;1.10;0.60;;;7.80;99.90;;;;;;5074321;28;20044;-74
2022/04/15 05:57:44;;;;;;;0.85;0.50;;;7.80;99.90;;;;;;5090812;28;20040;-74
2022/04/15 06:00:10;;;;;;;4.68;0.40;;;7.80;99.90;;;;;;5090768;28;20076;-75
2022/04/15 06:02:36;;;;;;;0.70;0.40;;;7.80;99.90;;;;;;5076787;28;20028;-77
2022/04/15 06:05:02;;;;;;;0.28;0.28;;;7.80;99.90;;;;;;5090675;28;20097;-74
2022/04/15 06:07:27;;;;;;;0.35;0.32;;;7.70;99.90;;;;;;5073896;28;20036;-75
2022/04/15 06:09:53;;;;;;;0.82;0.63;;;7.80;99.90;;;;;;5090834;28;20051;-75
2022/04/15 06:12:22;;;;;;;0.88;0.43;;;7.70;99.90;;;;;;5077814;28;20073;-74
2022/04/15 06:14:53;;;;;;;0.20;0.20;;;7.80;99.90;;;;;;5078167;28;20135;-74
2022/04/15 06:17:22;;;;;;;1.75;0.45;;;7.80;99.90;;;;;;5095275;28;20433;-76
2022/04/15 06:19:48;;;;;;;0.95;0.28;;;7.80;99.90;;;;;;5094824;28;20561;-75
2022/04/15 06:22:14;;;;;;;0.73;0.28;;;7.80;99.90;;;;;;5061698;28;20043;-78
2022/04/15 06:24:40;;;;;;;0.75;0.70;;;7.90;99.90;;;;;;5077766;28;20717;-76
2022/04/15 06:27:05;;;;;;;1.65;0.52;;;7.90;99.90;;;;;;5094788;28;20392;-78
2022/04/15 06:29:31;;;;;;;0.63;0.45;;;7.90;99.90;;;;;;5094764;28;20127;-77
2022/04/15 06:31:57;;;;;;;0.50;0.50;;;7.90;99.90;;;;;;5078161;28;20032;-77
2022/04/15 06:34:22;;;;;;;0.22;0.22;;;7.90;99.90;;;;;;5077709;28;20044;-77
2022/04/15 06:36:48;;;;;;;0.20;0.20;;;8.00;99.90;;;;;;5094830;28;20522;-77
2022/04/15 06:39:14;;;;;;;0.88;0.60;;;8.00;99.90;;;;;;5077848;28;20051;-77
2022/04/15 06:41:40;;;;;;;0.55;0.52;;;8.00;99.90;;;;;;5094313;28;20044;-76
2022/04/15 06:44:06;;;;;;;1.45;0.80;;;8.00;99.90;;;;;;5061136;28;20032;-77
2022/04/15 06:46:32;;;;;;;1.38;0.85;;;8.00;99.90;;;;;;5094476;28;20513;-76
2022/04/15 06:48:58;;;;;;;0.77;0.65;;;8.20;99.90;;;;;;5094423;28;20059;-76
2022/04/15 06:51:25;;;;;;;1.35;0.43;;;8.10;99.90;;;;;;5077182;28;20043;-77
2022/04/15 06:53:51;;;;;;;0.50;0.25;;;8.30;99.90;;;;;;5077511;28;20043;-76
2022/04/15 06:56:17;;;;;;;0.30;0.30;;;8.20;99.90;;;;;;5094361;28;20036;-76
2022/04/15 06:58:43;;;;;;;0.57;0.50;;;8.20;99.90;;;;;;5077248;28;20082;-77
2022/04/15 07:01:08;;;;;;;0.73;0.73;;;8.30;99.90;;;;;;5093595;28;20058;-75
2022/04/15 07:03:34;;;;;;;0.82;0.50;;;8.30;99.90;;;;;;5093795;28;20119;-74
2022/04/15 07:06:00;;;;;;;0.35;0.22;;;8.40;99.90;;;;;;5060296;28;20042;-77
2022/04/15 07:08:25;;;;;;;1.75;0.90;;;9.40;99.90;;;;;;5093644;28;20395;-76
2022/04/15 07:10:51;;;;;;;1.90;0.50;;;8.40;99.90;;;;;;5060136;28;20044;-75
2022/04/15 07:13:17;;;;;;;1.83;0.75;;;8.40;99.90;;;;;;5076855;28;20145;-75
2022/04/15 07:15:43;;;;;;;1.17;0.95;;;8.50;99.90;;;;;;5076936;28;20403;-75
2022/04/15 07:18:08;;;;;;;1.02;0.82;;;8.50;99.90;;;;;;5076750;28;20043;-74
2022/04/15 07:20:34;;;;;;;1.35;1.10;;;8.70;99.90;;;;;;5076481;28;20036;-74
2022/04/15 07:23:01;;;;;;;1.27;1.02;;;8.60;99.90;;;;;;5093203;28;20040;-75
2022/04/15 07:25:26;;;;;;;1.27;1.17;;;8.60;99.90;;;;;;5093981;28;20040;-75
2022/04/15 07:27:53;;;;;;;0.68;0.60;;;8.60;99.90;;;;;;5093968;28;20051;-74
2022/04/15 07:30:19;;;;;;;2.40;1.38;;;8.80;99.90;;;;;;5076746;28;20039;-74
2022/04/15 07:32:45;;;;;;;1.85;1.08;;;8.60;99.90;;;;;;5093679;28;20040;-76
2022/04/15 07:35:11;;;;;;;3.13;1.83;;;8.70;99.90;;;;;;5093115;28;20050;-75
2022/04/15 07:37:37;;;;;;;3.83;1.00;;;8.70;99.90;;;;;;5076242;28;20036;-75
2022/04/15 07:40:04;;;;;;;5.28;1.25;;;8.80;99.90;;;;;;5093272;28;20040;-78
2022/04/15 07:42:29;;;;;;;2.17;1.13;;;8.80;99.90;;;;;;5093550;28;20043;-75
2022/04/15 07:44:57;;;;;;;1.75;1.05;;;8.80;99.90;;;;;;5059472;28;20044;-74
2022/04/15 07:47:23;;;;;;;1.05;0.93;;;8.90;99.90;;;;;;5093099;28;20047;-74
2022/04/15 07:49:50;;;;;;;2.00;1.17;;;8.90;99.90;;;;;;5076545;28;20051;-74
2022/04/15 07:52:16;;;;;;;1.45;0.73;;;8.90;99.90;;;;;;5076440;28;20044;-75
2022/04/15 07:54:42;;;;;;;2.90;1.27;;;8.90;99.90;;;;;;5076795;28;20044;-74
2022/04/15 07:57:08;;;;;;;1.15;0.65;;;8.90;99.90;;;;;;5092846;28;20078;-74
2022/04/15 07:59:34;;;;;;;1.77;1.02;;;8.90;99.90;;;;;;5076064;28;20104;-74
2022/04/15 08:02:00;;;;;;;4.25;1.30;;;8.90;99.90;;;;;;5075973;28;20059;-74
2022/04/15 08:04:26;;;;;;;1.40;0.82;;;8.90;99.90;;;;;;5092839;28;20115;-74
2022/04/15 08:06:52;;;;;;;1.77;1.40;;;8.90;99.90;;;;;;5075998;28;20463;-75
2022/04/15 08:09:18;;;;;;;3.33;1.75;;;8.90;99.90;;;;;;5092761;28;20465;-75
2022/04/15 08:11:44;;;;;;;1.67;1.27;;;9.00;99.90;;;;;;5092989;28;20067;-75
2022/04/15 08:14:10;;;;;;;1.83;1.30;;;9.10;99.90;;;;;;5076053;28;20040;-75
2022/04/15 08:16:35;;;;;;;1.33;1.02;;;9.20;99.90;;;;;;5092661;28;20075;-73
2022/04/15 08:19:02;;;;;;;1.77;1.17;;;9.20;99.90;;;;;;5092441;28;20114;-73
2022/04/15 08:21:28;;;;;;;3.85;1.40;;;9.20;99.90;;;;;;5092391;28;20039;-73
2022/04/15 08:23:53;;;;;;;3.58;0.60;;;9.20;99.90;;;;;;5092275;28;20063;-74
2022/04/15 08:26:19;;;;;;;1.10;0.88;;;9.30;99.90;;;;;;5092497;28;20082;-73
2022/04/15 08:28:45;;;;;;;8.18;0.77;;;9.30;99.90;;;;;;5092251;28;20060;-74
2022/04/15 08:31:11;;;;;;;2.55;1.15;;;9.30;99.90;;;;;;5092207;28;20056;-74
2022/04/15 08:33:37;;;;;;;3.03;1.00;;;9.40;99.90;;;;;;5074750;28;20089;-73
2022/04/15 08:36:03;;;;;;;0.70;0.47;;;9.50;99.90;;;;;;5092449;28;20036;-73
2022/04/15 08:38:29;;;;;;;0.88;0.60;;;9.50;99.90;;;;;;5075330;28;20161;-73
2022/04/15 08:40:58;;;;;;;0.20;0.20;;;9.50;99.90;;;;;;5058577;28;20044;-74
2022/04/15 08:43:25;;;;;;;0.93;0.73;;;9.50;99.90;;;;;;5092030;28;20044;-73
2022/04/15 08:45:52;;;;;;;0.47;0.43;;;9.50;99.90;;;;;;5092301;28;20047;-72
2022/04/15 08:48:17;;;;;;;2.00;0.65;;;9.60;99.90;;;;;;5092249;28;20395;-73
2022/04/15 08:50:43;;;;;;;1.48;0.52;;;9.70;99.90;;;;;;5091947;28;20156;-73
2022/04/15 08:53:09;;;;;;;2.10;1.38;;;9.80;99.90;;;;;;5091881;28;20040;-73
2022/04/15 08:55:35;;;;;;;0.22;0.22;;;10.10;99.90;;;;;;5091854;28;20052;-73
2022/04/15 08:58:01;;;;;;;1.77;1.63;;;9.90;99.90;;;;;;5091998;28;20039;-73
2022/04/15 09:00:27;;;;;;;0.93;0.82;;;9.90;99.90;;;;;;5074986;28;20047;-73
2022/04/15 09:02:54;;;;;;;0.40;0.30;;;10.00;99.90;;;;;;5074839;28;20103;-73
2022/04/15 09:05:23;;;;;;;0.57;0.55;;;10.10;99.90;;;;;;5074790;28;20071;-74
2022/04/15 09:07:49;;;;;;;0.47;0.45;;;10.20;99.90;;;;;;5091743;28;20075;-73
2022/04/15 09:10:18;;;;;;;0.75;0.55;;;10.30;99.90;;;;;;5091726;28;20184;-74
2022/04/15 09:12:46;;;;;;;1.45;0.95;;;10.40;99.90;;;;;;5074638;28;20047;-73
2022/04/15 09:15:13;;;;;;;0.55;0.45;;;10.50;99.90;;;;;;5074980;28;20039;-74
2022/04/15 09:17:40;;;;;;;0.45;0.45;;;10.70;99.90;;;;;;5074893;28;20040;-74
2022/04/15 09:20:09;;;;;;;1.10;0.80;;;10.70;99.90;;;;;;5091540;28;20407;-73
2022/04/15 09:22:37;;;;;;;0.80;0.40;;;10.80;99.90;;;;;;5074727;28;20051;-74
2022/04/15 09:25:04;;;;;;;0.38;0.38;;;10.90;99.90;;;;;;5091200;28;20087;-74
2022/04/15 09:27:29;;;;;;;2.78;0.60;;;10.90;99.90;;;;;;5074881;28;20097;-73
2022/04/15 09:29:56;;;;;;;2.45;0.85;;;10.90;99.90;;;;;;5091383;28;20056;-73
2022/04/15 09:32:24;;;;;;;1.40;0.90;;;11.00;99.90;;;;;;5074411;28;20105;-74
2022/04/15 09:34:57;;;;;;;1.73;0.60;;;11.40;99.90;;;;;;5091277;28;20043;-73
2022/04/15 09:37:44;;;;;;;1.15;0.93;;;11.10;99.90;;;;;;5091238;28;20054;-74
2022/04/15 09:40:17;;;;;;;0.80;0.32;;;11.30;99.90;;;;;;5074479;28;20134;-74
2022/04/15 09:42:50;;;;;;;0.45;0.38;;;11.20;99.90;;;;;;5074156;28;20040;-74
2022/04/15 09:45:17;;;;;;;0.95;0.82;;;11.30;99.90;;;;;;5090912;28;20146;-74
2022/04/15 09:47:50;;;;;;;1.58;0.60;;;11.20;99.90;;;;;;5074486;28;20434;-74
2022/04/15 09:50:26;;;;;;;1.83;1.20;;;11.20;99.90;;;;;;5075541;28;20553;-73
2022/04/15 09:52:53;;;;;;;1.13;0.80;;;11.30;99.90;;;;;;5074429;28;20502;-74
2022/04/15 09:55:20;;;;;;;1.45;1.02;;;11.30;99.90;;;;;;5091069;28;20048;-73
2022/04/15 09:57:48;;;;;;;0.73;0.63;;;11.30;99.90;;;;;;5090790;28;20127;-73
2022/04/15 10:00:18;;;;;;;0.68;0.63;;;11.30;99.90;;;;;;5057374;28;20103;-74
2022/04/15 10:02:45;;;;;;;2.10;1.13;;;11.40;99.90;;;;;;5090819;28;20050;-74
2022/04/15 10:05:13;;;;;;;1.60;1.23;;;11.30;99.90;;;;;;5090839;28;20068;-74
2022/04/15 10:07:42;;;;;;;3.30;0.98;;;11.40;99.90;;;;;;5090665;28;20044;-74
2022/04/15 10:10:09;;;;;;;1.27;0.75;;;11.70;99.90;;;;;;5057229;28;20188;-74
2022/04/15 10:12:39;;;;;;;0.65;0.65;;;11.70;99.90;;;;;;5090605;28;20087;-74
2022/04/15 10:15:09;;;;;;;1.15;0.52;;;;;;;;;;5090650;28;20083;-74
2022/04/15 10:17:36;;;;;;;1.90;0.57;;;;;;;;;;5057461;28;20036;-74
2022/04/15 10:20:02;;;;;;;0.30;0.30;;;;;;;;;;5073656;28;20094;-74
2022/04/15 10:22:29;;;;;;;0.82;0.75;;;;;;;;;;5057345;28;20036;-74
2022/04/15 10:24:55;;;;;;;0.93;0.57;;;;;;;;;;5090457;28;20083;-74
2022/04/15 10:27:30;;;;;;;1.65;0.77;;;;;;;;;;5090539;28;20414;-74
2022/04/15 10:30:14;;;;;;;1.83;1.30;;;;;;;;;;5090544;28;20052;-74
2022/04/15 10:32:51;;;;;;;1.35;0.90;;;;;;;;;;5090384;28;20052;-74
2022/04/15 10:35:24;;;;;;;0.68;0.50;;;;;;;;;;5090436;28;20040;-74
2022/04/15 10:37:54;;;;;;;1.63;1.20;;;;;;;;;;5091837;28;20043;-74
2022/04/15 10:40:46;;;;;;;1.38;0.90;;;;;;;;;;5090290;28;20040;-75
2022/04/15 10:43:20;;;;;;;1.08;0.80;;;;;;;;;;5088675;28;20054;-74
2022/04/15 10:45:46;;;;;;;0.57;0.50;;;;;;;;;;5090327;28;20036;-75
2022/04/15 10:48:12;;;;;;;0.73;0.60;;;;;;;;;;5090332;28;20047;-74
2022/04/15 10:50:40;;;;;;;1.05;0.80;;;;;;;;;;5090585;28;20495;-74
2022/04/15 10:53:16;;;;;;;0.50;0.50;;;;;;;;;;5090313;28;20079;-74
2022/04/15 10:55:43;;;;;;;0.50;0.30;;;;;;;;;;5090338;28;20063;-74
2022/04/15 10:58:13;;;;;;;0.45;0.40;;;;;;;;;;5093588;28;20036;-74
2022/04/15 11:03:32;;;;;;;2.10;1.17;;;;;;;;;;5094316;28;20050;-74
2022/04/15 11:06:05;;;;;;;0.30;0.30;;;;;;;;;;5094230;28;20044;-73
2022/04/15 11:08:48;;;;;;;0.73;0.73;;;;;;;;;;5077347;28;20036;-74
2022/04/15 11:11:14;;;;;;;1.20;1.10;;;;;;;;;;5094050;28;20063;-74
2022/04/15 11:13:42;;;;;;;0.63;0.63;;;;;;;;;;5093830;28;20047;-74
2022/04/15 11:16:15;;;;;;;0.40;0.40;;;;;;;;;;5093782;28;20101;-74
2022/04/15 11:18:50;;;;;;;1.40;0.93;;;11.50;99.90;;;;;;5093710;28;20051;-74
2022/04/15 11:21:17;;;;;;;0.52;0.52;;;11.40;99.90;;;;;;5093654;28;20047;-74
2022/04/15 11:23:55;;;;;;;1.23;0.63;;;11.60;99.90;;;;;;5076746;28;20492;-74
2022/04/15 11:26:26;;;;;;;2.00;0.85;;;11.60;99.90;;;;;;5076983;28;20131;-75
2022/04/15 11:28:57;;;;;;;0.65;0.60;;;11.30;99.90;;;;;;5093790;28;20040;-74
2022/04/15 11:31:27;;;;;;;;;;;11.60;99.90;;;;;;5077194;28;20123;-74
2022/04/15 11:34:16;;;;;;;1.23;0.60;;;11.40;99.90;;;;;;5076562;28;19923;-74
2022/04/15 11:36:44;;;;;;;1.85;0.63;;;11.40;99.90;;;;;;5093571;28;20047;-74
2022/04/15 11:39:15;;;;;;;2.05;0.95;;;11.20;99.90;;;;;;5093241;28;20040;-74
2022/04/15 11:42:01;;;;;;;;;;;11.20;99.90;;;;;;5093727;28;20123;-72
2022/04/15 11:44:32;;;;;;;1.92;0.95;;;11.20;99.90;;;;;;5127181;27;19916;-73
2022/04/15 11:47:15;;;;;;;0.55;0.55;;;11.20;99.90;;;;;;5093324;28;20047;-73
2022/04/15 11:49:42;;;;;;;0.95;0.88;;;11.20;99.90;;;;;;5078767;28;20043;-73
2022/04/15 11:52:08;;;;;;;3.20;0.98;;;11.30;99.90;;;;;;5093005;28;20040;-73
2022/04/15 11:54:38;;;;;;;0.75;0.60;;;11.30;99.90;;;;;;5093316;28;20449;-73
2022/04/15 11:57:04;;;;;;;1.23;0.75;;;11.80;99.90;;;;;;5076098;28;20082;-73
2022/04/15 11:59:42;;;;;;;0.90;0.30;;;11.00;99.90;;;;;;5059753;28;20044;-73
2022/04/15 12:02:09;;;;;;;0.55;0.50;;;11.30;99.90;;;;;;5092938;28;20035;-74
2022/04/15 12:04:35;;;;;;;5.03;1.00;;;11.50;99.90;;;;;;5092834;28;20079;-73
2022/04/15 12:07:02;;;;;;;1.45;0.98;;;11.60;99.90;;;;;;5092677;28;20055;-74
2022/04/15 12:09:28;;;;;;;0.95;0.55;;;11.20;99.90;;;;;;5058058;28;20054;-73
2022/04/15 12:11:53;;;;;;;1.08;0.60;;;11.30;99.90;;;;;;5092688;28;20044;-73
2022/04/15 12:14:19;;;;;;;1.55;0.85;;;11.50;99.90;;;;;;5076037;28;20042;-73
2022/04/15 12:16:47;;;;;;;0.45;0.40;;;11.30;99.90;;;;;;5092453;28;20048;-73
2022/04/15 12:19:13;;;;;;;1.75;0.60;;;11.70;99.90;;;;;;5092643;28;20122;-73
2022/04/15 12:21:40;;;;;;;2.72;0.80;;;11.60;99.90;;;;;;5092515;28;20036;-73
2022/04/15 12:24:07;;;;;;;1.63;0.65;;;11.30;99.90;;;;;;5092156;28;20055;-73
2022/04/15 12:26:52;;;;;;;0.90;0.60;;;11.10;99.90;;;;;;5092266;28;20043;-73
2022/04/15 12:32:35;;;;;;;0.98;0.50;;;11.10;99.90;;;;;;5078011;28;20055;-73
2022/04/15 12:35:00;;;;;;;0.90;0.75;;;11.20;99.90;;;;;;5076154;28;20113;-73
2022/04/15 12:37:35;;;;;;;0.80;0.40;;;11.40;99.90;;;;;;5075602;28;20061;-73
2022/04/15 12:40:21;;;;;;;1.13;0.98;;;11.20;99.90;;;;;;5092282;28;20080;-73
2022/04/15 12:42:49;;;;;;;0.90;0.30;;;11.80;99.90;;;;;;5091271;28;20042;-73
2022/04/15 12:45:17;;;;;;;0.90;0.70;;;11.40;99.90;;;;;;5091982;28;20039;-73
2022/04/15 12:47:56;;;;;;;3.10;0.80;;;11.00;99.90;;;;;;5091968;28;20055;-73
2022/04/15 12:50:25;;;;;;;1.20;0.63;;;11.20;99.90;;;;;;5092254;28;20089;-72
2022/04/15 12:52:54;;;;;;;1.35;0.70;;;11.30;99.90;;;;;;5092149;28;20136;-73
2022/04/15 12:55:38;;;;;;;0.32;0.32;;;11.20;99.90;;;;;;5092056;28;20075;-73
2022/04/15 12:58:25;;;;;;;2.05;1.17;;;10.90;99.90;;;;;;5091894;28;20143;-73
2022/04/15 13:00:53;;;;;;;3.22;0.90;;;10.80;99.90;;;;;;5091721;28;20048;-73
2022/04/15 13:03:21;;;;;;;0.90;0.60;;;11.10;99.90;;;;;;5075371;28;20032;-73
2022/04/15 13:05:47;;;;;;;1.45;0.70;;;11.30;99.90;;;;;;5092285;28;20086;-73
2022/04/15 13:08:19;;;;;;;1.83;1.08;;;11.00;99.90;;;;;;5091887;28;20044;-73
2022/04/15 13:10:46;;;;;;;0.65;0.45;;;10.10;99.90;;;;;;5075477;28;20119;-73